Time;durP1;ratioP1;P1;durP2;ratioP2;P2;SDS_P1;SDS_P2;PMS_P1;PMS_P2;Temp;Humidity;BMP_temperature;BMP_pressure;BME280_temperature;BME280_humidity;BME280_pressure;Samples;Min_cycle;Max_cycle;Signal;HPM_P1;HPM_P2
2022/03/06 00:01:49;;;;;;;6.90;4.90;;;;;;;0.00;67.92;101236.21;1714162;83;21446;-73
2022/03/06 00:04:16;;;;;;;4.75;4.30;;;;;;;-0.05;68.18;101236.20;1714050;83;21565;-72
2022/03/06 00:06:45;;;;;;;5.78;4.55;;;;;;;-0.08;68.53;101237.97;1688166;83;20964;-72
2022/03/06 00:09:12;;;;;;;8.80;7.17;;;;;;;-0.10;68.72;101237.97;1714027;83;20885;-73
2022/03/06 00:11:41;;;;;;;7.53;5.22;;;;;;;-0.04;69.03;101245.67;1714314;83;20873;-72
2022/03/06 00:14:09;;;;;;;8.13;4.25;;;;;;;0.04;69.17;101246.90;1714187;83;21544;-72
2022/03/06 00:16:36;;;;;;;8.15;6.75;;;;;;;0.11;69.05;101255.45;1714268;83;20929;-73
2022/03/06 00:19:04;;;;;;;8.68;6.20;;;;;;;0.15;69.03;101252.84;1714718;83;21004;-73
2022/03/06 00:21:34;;;;;;;7.55;6.10;;;;;;;0.22;69.05;101255.38;1716370;83;20916;-72
2022/03/06 00:24:02;;;;;;;7.85;5.33;;;;;;;0.25;68.99;101257.96;1690762;83;21411;-73
2022/03/06 00:26:31;;;;;;;7.22;5.65;;;;;;;0.28;68.77;101254.05;1716534;83;21393;-72
2022/03/06 00:28:58;;;;;;;7.75;5.15;;;;;;;0.28;68.75;101259.22;1716346;83;20912;-73
2022/03/06 00:31:25;;;;;;;6.62;5.92;;;;;;;0.29;68.68;101258.33;1716383;83;20944;-73
2022/03/06 00:33:52;;;;;;;6.17;5.58;;;;;;;0.27;68.62;101259.66;1716444;83;20913;-72
2022/03/06 00:36:19;;;;;;;7.55;5.25;;;;;;;0.27;68.60;101261.36;1716433;83;20912;-72
2022/03/06 00:38:47;;;;;;;6.22;4.87;;;;;;;0.27;68.75;101265.22;1716354;83;21153;-72
2022/03/06 00:41:14;;;;;;;10.23;8.25;;;;;;;0.28;68.76;101261.35;1716287;83;20955;-73
2022/03/06 00:43:42;;;;;;;12.82;9.13;;;;;;;0.30;68.75;101260.06;1716414;83;20905;-72
2022/03/06 00:46:09;;;;;;;6.40;5.80;;;;;;;0.32;68.79;101259.18;1716326;83;20888;-72
2022/03/06 00:48:36;;;;;;;6.33;4.95;;;;;;;0.33;68.76;101267.33;1716423;83;20945;-72
2022/03/06 00:51:04;;;;;;;7.10;5.40;;;;;;;0.35;68.65;101269.91;1716431;83;21152;-72
2022/03/06 00:53:31;;;;;;;8.10;5.85;;;;;;;0.35;68.69;101273.77;1716325;83;21414;-72
2022/03/06 00:55:59;;;;;;;6.42;4.85;;;;;;;0.32;68.54;101268.20;1716407;83;20940;-71
2022/03/06 00:58:26;;;;;;;6.10;5.12;;;;;;;0.31;68.57;101274.66;1716469;83;20992;-73
2022/03/06 01:00:53;;;;;;;7.00;5.67;;;;;;;0.29;68.63;101276.39;1716791;83;20924;-73
2022/03/06 01:03:21;;;;;;;6.08;4.75;;;;;;;0.29;68.64;101284.13;1716447;83;21128;-72
2022/03/06 01:05:48;;;;;;;6.60;5.60;;;;;;;0.27;68.70;101281.58;1716290;83;21030;-72
2022/03/06 01:08:15;;;;;;;9.48;6.92;;;;;;;0.27;68.80;101283.28;1716437;83;20988;-73
2022/03/06 01:10:44;;;;;;;10.25;7.55;;;;;;;0.31;68.88;101284.98;1716269;83;20885;-73
2022/03/06 01:13:15;;;;;;;12.95;9.48;;;;;;;0.33;68.93;101284.53;1716363;83;20950;-72
2022/03/06 01:15:42;;;;;;;13.10;10.35;;;;;;;0.34;68.94;101285.83;1716466;83;21623;-72
2022/03/06 01:18:09;;;;;;;12.28;8.90;;;;;;;0.32;68.87;101279.81;1716318;83;21425;-71
2022/03/06 01:20:38;;;;;;;9.83;7.37;;;;;;;0.32;68.86;101285.42;1723721;83;20880;-72
2022/03/06 01:23:06;;;;;;;8.80;7.65;;;;;;;0.33;68.96;101285.83;1725405;83;20956;-72
2022/03/06 01:25:33;;;;;;;10.32;7.95;;;;;;;0.33;68.85;101290.55;1725440;83;21026;-73
2022/03/06 01:28:01;;;;;;;9.45;7.50;;;;;;;0.34;69.02;101288.84;1725389;83;21166;-72
2022/03/06 01:30:28;;;;;;;11.68;8.25;;;;;;;0.38;69.05;101295.70;1725630;83;20928;-72
2022/03/06 01:32:55;;;;;;;11.63;6.92;;;;;;;0.37;68.93;101299.13;1725393;83;20948;-72
2022/03/06 01:35:22;;;;;;;12.28;8.48;;;;;;;0.34;69.02;101303.03;1725332;83;21426;-72
2022/03/06 01:37:49;;;;;;;12.93;8.40;;;;;;;0.30;69.20;101300.05;1725600;83;20987;-72
2022/03/06 01:40:19;;;;;;;11.73;8.45;;;;;;;0.31;69.36;101302.63;1725336;83;21530;-71
2022/03/06 01:42:48;;;;;;;10.75;8.08;;;;;;;0.32;69.45;101301.75;1725359;83;21433;-71
2022/03/06 01:45:15;;;;;;;9.73;7.53;;;;;;;0.35;69.45;101304.29;1725567;83;20936;-71
2022/03/06 01:47:44;;;;;;;12.23;8.98;;;;;;;0.37;69.48;101310.30;1725314;83;20932;-72
2022/03/06 01:50:18;;;;;;;13.05;8.73;;;;;;;0.40;69.52;101312.88;1725385;83;20955;-72
2022/03/06 01:52:47;;;;;;;11.73;8.95;;;;;;;0.43;69.55;101313.28;1725530;83;21242;-72
2022/03/06 01:55:14;;;;;;;9.88;7.70;;;;;;;0.46;69.39;101314.54;1725286;83;21031;-72
2022/03/06 01:57:42;;;;;;;9.78;6.37;;;;;;;0.45;69.39;101310.27;1725334;83;20943;-73
2022/03/06 02:00:14;;;;;;;8.58;6.45;;;;;;;0.49;69.42;101313.66;1725440;83;21035;-72
2022/03/06 02:02:43;;;;;;;6.10;5.43;;;;;;;0.50;69.39;101315.39;1725670;83;20861;-73
2022/03/06 02:05:11;;;;;;;7.72;6.17;;;;;;;0.51;69.24;101314.09;1725492;83;21632;-72
2022/03/06 02:07:38;;;;;;;6.92;5.97;;;;;;;0.51;69.22;101319.66;1725236;83;21423;-73
2022/03/06 02:10:07;;;;;;;8.83;6.70;;;;;;;0.51;69.11;101315.80;1725440;83;21441;-72
2022/03/06 02:12:35;;;;;;;8.53;6.08;;;;;;;0.49;69.04;101320.99;1725271;83;21003;-73
2022/03/06 02:15:05;;;;;;;8.48;5.65;;;;;;;0.48;69.26;101323.57;1725684;83;20900;-72
2022/03/06 02:17:32;;;;;;;11.30;7.70;;;;;;;0.47;69.20;101325.30;1725495;83;21184;-72
2022/03/06 02:20:04;;;;;;;7.95;6.35;;;;;;;0.46;69.20;101327.88;1725264;83;21371;-73
2022/03/06 02:22:33;;;;;;;6.90;6.15;;;;;;;0.44;69.36;101329.17;1724477;83;20897;-72
2022/03/06 02:25:04;;;;;;;8.48;6.65;;;;;;;0.45;69.44;101324.89;1725292;83;20868;-72
2022/03/06 02:27:33;;;;;;;10.25;6.33;;;;;;;0.48;69.49;101332.16;1725335;83;20896;-72
2022/03/06 02:30:02;;;;;;;9.00;6.35;;;;;;;0.50;69.50;101333.01;1725418;83;21151;-73
2022/03/06 02:34:15;;;;;;;12.25;7.75;;;;;;;0.59;69.32;101327.78;1816465;79;22296;-72
2022/03/06 02:36:42;;;;;;;9.03;6.62;;;;;;;0.53;69.22;101330.84;1789638;80;20919;-73
2022/03/06 02:39:09;;;;;;;9.18;6.50;;;;;;;0.56;69.17;101334.70;1789602;79;21218;-72
2022/03/06 02:41:38;;;;;;;6.95;6.25;;;;;;;0.57;69.30;101328.66;1789311;80;20919;-72
2022/03/06 02:44:05;;;;;;;8.40;6.35;;;;;;;0.59;69.25;101336.81;1789600;80;21409;-72
2022/03/06 02:46:32;;;;;;;10.03;7.28;;;;;;;0.59;69.26;101335.52;1789378;80;20896;-73
2022/03/06 02:48:59;;;;;;;10.40;7.03;;;;;;;0.61;69.11;101337.66;1789516;80;20924;-72
2022/03/06 02:51:27;;;;;;;9.63;7.25;;;;;;;0.59;69.14;101338.10;1789532;80;21910;-71
2022/03/06 02:53:53;;;;;;;10.95;7.92;;;;;;;0.61;69.09;101345.41;1789536;79;20911;-74
2022/03/06 02:56:21;;;;;;;10.65;7.90;;;;;;;0.61;69.12;101345.41;1789394;80;20943;-72
2022/03/06 02:58:48;;;;;;;13.25;8.90;;;;;;;0.61;69.02;101350.56;1789671;80;20943;-73
2022/03/06 03:01:15;;;;;;;12.82;8.38;;;;;;;0.61;69.09;101355.72;1789404;80;20896;-72
2022/03/06 03:03:44;;;;;;;9.35;6.85;;;;;;;0.58;69.11;101353.18;1789464;80;21482;-73
2022/03/06 03:06:12;;;;;;;13.55;8.55;;;;;;;0.58;69.26;101356.20;1789456;80;20980;-72
2022/03/06 03:08:39;;;;;;;9.95;7.33;;;;;;;0.57;69.19;101361.77;1789443;80;21405;-72
2022/03/06 03:11:06;;;;;;;15.30;8.50;;;;;;;0.58;69.13;101363.50;1789474;80;20986;-72
2022/03/06 03:13:33;;;;;;;17.00;11.25;;;;;;;0.58;69.23;101361.36;1789361;80;21346;-72
2022/03/06 03:16:00;;;;;;;14.13;8.43;;;;;;;0.60;69.26;101366.93;1789397;80;21109;-74
2022/03/06 03:18:29;;;;;;;14.90;9.10;;;;;;;0.60;69.14;101366.93;1789444;80;20868;-73
2022/03/06 03:20:58;;;;;;;17.17;10.13;;;;;;;0.61;69.11;101380.69;1789499;80;21010;-73
2022/03/06 03:23:25;;;;;;;15.35;10.82;;;;;;;0.60;69.15;101377.66;1789330;80;20943;-72
2022/03/06 03:25:53;;;;;;;15.48;10.48;;;;;;;0.59;69.13;101384.55;1789418;80;21370;-72
2022/03/06 03:28:20;;;;;;;11.10;9.08;;;;;;;0.59;69.27;101383.27;1789629;80;21209;-72
2022/03/06 03:30:47;;;;;;;10.18;8.18;;;;;;;0.60;69.25;101385.41;1789297;80;21393;-72
2022/03/06 03:33:14;;;;;;;13.20;8.80;;;;;;;0.59;69.25;101387.58;1783208;80;20972;-72
2022/03/06 03:35:41;;;;;;;14.63;9.45;;;;;;;0.57;69.29;101389.31;1775865;80;20971;-72
2022/03/06 03:38:08;;;;;;;12.07;9.08;;;;;;;0.55;69.28;101392.33;1775872;80;20991;-71
2022/03/06 03:40:35;;;;;;;13.83;9.38;;;;;;;0.53;69.37;101392.77;1775916;80;22147;-72
2022/03/06 03:43:03;;;;;;;16.80;9.65;;;;;;;0.52;69.48;101394.50;1775807;80;20876;-72
2022/03/06 03:45:30;;;;;;;11.68;8.43;;;;;;;0.52;69.43;101398.81;1775419;80;21516;-72
2022/03/06 03:47:57;;;;;;;10.43;7.30;;;;;;;0.48;69.41;101399.25;1775607;80;20895;-71
2022/03/06 03:50:24;;;;;;;14.25;9.25;;;;;;;0.48;69.50;101400.98;1775362;80;20885;-72
2022/03/06 03:52:51;;;;;;;12.63;9.03;;;;;;;0.48;69.62;101398.40;1775335;80;21646;-73
2022/03/06 03:55:19;;;;;;;10.10;7.85;;;;;;;0.48;69.62;101400.54;1775273;80;20932;-72
2022/03/06 03:57:46;;;;;;;11.10;8.20;;;;;;;0.47;69.64;101406.58;1775263;80;20919;-72
2022/03/06 04:00:13;;;;;;;16.05;9.03;;;;;;;0.47;69.58;101406.58;1775313;80;20936;-73
2022/03/06 04:02:41;;;;;;;18.37;11.33;;;;;;;0.43;69.61;101410.48;1775394;80;20996;-71
2022/03/06 04:05:09;;;;;;;22.20;11.53;;;;;;;0.45;69.64;101413.91;1775587;80;21581;-72
2022/03/06 04:07:36;;;;;;;14.50;9.58;;;;;;;0.46;69.72;101414.32;1775300;80;20849;-72
2022/03/06 04:10:04;;;;;;;17.92;13.32;;;;;;;0.46;69.65;101409.16;1775233;80;20924;-72
2022/03/06 04:12:31;;;;;;;17.02;11.83;;;;;;;0.46;69.71;101413.88;1775653;80;21433;-74
2022/03/06 04:14:58;;;;;;;16.37;9.70;;;;;;;0.48;69.73;101417.31;1775344;80;20920;-73
2022/03/06 04:17:25;;;;;;;17.25;10.43;;;;;;;0.48;69.66;101410.86;1775243;80;21113;-71
2022/03/06 04:19:52;;;;;;;15.72;10.03;;;;;;;0.49;69.68;101415.58;1775446;80;20916;-71
2022/03/06 04:22:19;;;;;;;13.93;9.05;;;;;;;0.50;69.70;101417.31;1775354;80;20941;-71
2022/03/06 04:24:46;;;;;;;12.68;8.43;;;;;;;0.51;69.69;101412.56;1775308;80;22067;-72
2022/03/06 04:27:13;;;;;;;15.23;9.98;;;;;;;0.51;69.54;101413.45;1775521;80;20972;-72
2022/03/06 04:29:41;;;;;;;13.20;9.28;;;;;;;0.50;69.56;101419.45;1775366;80;21248;-72
2022/03/06 04:32:08;;;;;;;15.53;9.30;;;;;;;0.50;69.62;101426.34;1775200;80;20979;-74
2022/03/06 04:34:36;;;;;;;15.50;10.18;;;;;;;0.52;69.65;101434.50;1782294;80;20952;-73
2022/03/06 04:37:05;;;;;;;13.65;9.48;;;;;;;0.51;69.68;101430.63;1753871;80;21387;-73
2022/03/06 04:39:32;;;;;;;13.25;8.95;;;;;;;0.51;69.60;101434.09;1783488;80;21406;-72
2022/03/06 04:41:59;;;;;;;13.95;8.88;;;;;;;0.51;69.58;101430.63;1783860;80;21088;-72
2022/03/06 04:44:26;;;;;;;12.65;8.93;;;;;;;0.52;69.55;101428.48;1783424;80;20924;-72
2022/03/06 04:46:53;;;;;;;11.18;9.03;;;;;;;0.55;69.53;101437.48;1783424;80;20900;-72
2022/03/06 04:49:20;;;;;;;14.95;10.08;;;;;;;0.56;69.56;101440.07;1783832;80;21378;-73
2022/03/06 04:51:47;;;;;;;13.30;8.95;;;;;;;0.57;69.67;101443.06;1783598;80;20978;-71
2022/03/06 04:54:15;;;;;;;12.18;9.35;;;;;;;0.62;69.66;101445.61;1783390;80;22103;-73
2022/03/06 04:56:42;;;;;;;9.53;7.72;;;;;;;0.64;69.41;101440.45;1783719;80;20932;-72
2022/03/06 04:59:09;;;;;;;12.13;7.90;;;;;;;0.67;69.36;101443.00;1783573;80;20944;-72
2022/03/06 05:01:36;;;;;;;10.80;7.87;;;;;;;0.71;69.28;101448.58;1783428;80;21390;-74
2022/03/06 05:04:04;;;;;;;11.28;7.97;;;;;;;0.76;69.12;101453.30;1783523;80;20880;-72
2022/03/06 05:06:31;;;;;;;10.40;7.70;;;;;;;0.80;68.96;101464.01;1783597;80;21117;-72
2022/03/06 05:09:00;;;;;;;10.85;7.33;;;;;;;0.79;68.75;101456.70;1783525;80;21085;-73
2022/03/06 05:11:28;;;;;;;10.60;7.78;;;;;;;0.76;68.76;101464.48;1783544;80;20935;-72
2022/03/06 05:13:55;;;;;;;12.58;9.35;;;;;;;0.79;68.83;101465.74;1783360;80;20936;-73
2022/03/06 05:16:22;;;;;;;14.15;8.05;;;;;;;0.83;68.73;101462.28;1783546;80;20932;-72
2022/03/06 05:18:49;;;;;;;12.60;8.75;;;;;;;0.87;68.53;101470.87;1783925;80;21131;-74
2022/03/06 05:21:16;;;;;;;10.05;7.70;;;;;;;0.91;68.34;101470.41;1783379;80;21446;-72
2022/03/06 05:23:43;;;;;;;10.98;8.13;;;;;;;0.93;68.15;101466.94;1783425;80;20931;-73
2022/03/06 05:26:10;;;;;;;12.28;8.63;;;;;;;0.93;68.10;101463.50;1783772;80;20947;-73
2022/03/06 05:28:39;;;;;;;16.23;10.30;;;;;;;0.97;68.12;101470.38;1783631;80;20856;-73
2022/03/06 05:31:07;;;;;;;11.03;7.47;;;;;;;1.04;68.12;101475.91;1783646;80;21145;-73
2022/03/06 05:33:34;;;;;;;12.75;8.15;;;;;;;1.10;67.90;101475.88;1780326;80;20869;-73
2022/03/06 05:36:01;;;;;;;11.22;8.70;;;;;;;1.12;67.55;101475.44;1775166;80;21429;-74
2022/03/06 05:38:28;;;;;;;12.93;9.15;;;;;;;1.13;67.44;101473.70;1775089;80;20956;-73
2022/03/06 05:40:55;;;;;;;14.55;9.68;;;;;;;1.14;67.27;101468.53;1775590;80;20896;-72
2022/03/06 05:43:22;;;;;;;12.98;8.90;;;;;;;1.19;67.14;101472.38;1775240;80;21528;-74
2022/03/06 05:45:51;;;;;;;11.93;8.65;;;;;;;1.24;66.95;101471.89;1775217;80;20991;-74
2022/03/06 05:48:19;;;;;;;12.75;9.13;;;;;;;1.33;66.91;101470.97;1775555;80;20963;-72
2022/03/06 05:50:46;;;;;;;9.08;7.40;;;;;;;1.37;66.59;101481.27;1775235;80;21082;-73
2022/03/06 05:53:13;;;;;;;9.73;6.80;;;;;;;1.42;66.49;101481.22;1775273;80;21311;-73
2022/03/06 05:55:40;;;;;;;9.75;7.00;;;;;;;1.50;65.97;101486.34;1775246;80;21466;-73
2022/03/06 05:58:08;;;;;;;8.05;6.22;;;;;;;1.51;65.97;101482.44;1775088;80;20971;-74
2022/03/06 06:00:35;;;;;;;7.50;6.50;;;;;;;1.60;66.05;101478.91;1775158;80;21350;-72
2022/03/06 06:03:02;;;;;;;9.45;6.75;;;;;;;1.75;65.98;101489.11;1775052;80;20915;-73
2022/03/06 06:05:30;;;;;;;8.60;6.90;;;;;;;1.90;65.76;101482.95;1775328;80;20936;-73
2022/03/06 06:07:57;;;;;;;6.58;5.72;;;;;;;2.06;65.74;101488.36;1775291;80;21615;-72
2022/03/06 06:10:24;;;;;;;9.00;6.80;;;;;;;2.25;65.16;101485.15;1775345;80;20944;-73
2022/03/06 06:12:51;;;;;;;10.72;6.45;;;;;;;2.37;64.68;101500.96;1775207;80;20948;-72
2022/03/06 06:15:18;;;;;;;7.90;6.15;;;;;;;2.46;64.23;101499.55;1775108;80;21011;-75
2022/03/06 06:17:45;;;;;;;9.20;6.03;;;;;;;2.51;63.74;101496.05;1775425;80;20927;-74
2022/03/06 06:20:12;;;;;;;9.25;6.65;;;;;;;2.54;63.47;101496.04;1775278;80;21645;-74
2022/03/06 06:22:39;;;;;;;8.45;6.37;;;;;;;2.62;63.25;101502.83;1775173;80;20967;-74
2022/03/06 06:25:07;;;;;;;5.72;5.03;;;;;;;2.69;62.90;101504.46;1775232;80;21362;-74
2022/03/06 06:27:35;;;;;;;6.80;6.10;;;;;;;2.72;62.85;101504.85;1775122;80;20900;-74
2022/03/06 06:30:02;;;;;;;7.37;5.15;;;;;;;2.79;62.43;101510.36;1775287;80;20979;-74
2022/03/06 06:32:29;;;;;;;7.33;5.60;;;;;;;2.83;62.40;101507.30;1775196;80;21250;-73
2022/03/06 06:34:56;;;;;;;7.00;5.70;;;;;;;2.89;61.53;101506.78;1780727;80;21350;-74
2022/03/06 06:37:23;;;;;;;6.47;5.65;;;;;;;2.98;61.52;101504.50;1783474;80;20852;-75
2022/03/06 06:39:50;;;;;;;7.05;5.55;;;;;;;3.09;61.07;101505.62;1783466;80;21026;-74
2022/03/06 06:42:19;;;;;;;6.78;5.78;;;;;;;3.23;59.98;101511.47;1783389;80;20959;-76
2022/03/06 06:44:47;;;;;;;6.30;5.70;;;;;;;3.30;59.58;101513.53;1783444;80;21551;-74
2022/03/06 06:47:14;;;;;;;7.55;5.78;;;;;;;3.43;59.71;101518.94;1783583;80;20848;-74
2022/03/06 06:49:41;;;;;;;6.58;5.42;;;;;;;3.63;59.39;101517.77;1783388;80;21362;-74
2022/03/06 06:52:08;;;;;;;6.42;4.70;;;;;;;3.78;59.00;101520.52;1783321;80;20919;-73
2022/03/06 06:54:35;;;;;;;6.53;5.05;;;;;;;3.88;58.30;101522.08;1783721;80;21477;-74
2022/03/06 06:57:03;;;;;;;7.05;5.58;;;;;;;3.94;58.07;101521.98;1783414;80;21496;-74
2022/03/06 06:59:30;;;;;;;9.68;5.75;;;;;;;3.97;57.79;101518.02;1783353;80;20944;-74
2022/03/06 07:01:57;;;;;;;6.97;6.28;;;;;;;4.02;57.85;101529.61;1783473;80;20931;-74
2022/03/06 07:04:24;;;;;;;5.30;4.72;;;;;;;4.07;57.64;101529.08;1783341;80;21421;-74
2022/03/06 07:06:51;;;;;;;6.22;4.97;;;;;;;4.11;57.40;101522.95;1783586;80;20986;-74
2022/03/06 07:09:18;;;;;;;7.12;4.92;;;;;;;4.14;56.76;101528.95;1783739;80;21127;-74
2022/03/06 07:11:45;;;;;;;5.90;4.65;;;;;;;4.09;56.02;101528.61;1783338;80;20927;-74
2022/03/06 07:14:13;;;;;;;5.70;4.17;;;;;;;4.04;56.02;101529.14;1783414;80;20888;-74
2022/03/06 07:16:43;;;;;;;5.85;4.10;;;;;;;4.00;55.56;101528.78;1783371;80;20979;-75
2022/03/06 07:19:12;;;;;;;5.42;4.87;;;;;;;3.89;54.78;101527.67;1783522;80;21449;-73
2022/03/06 07:21:40;;;;;;;5.10;4.33;;;;;;;3.80;55.35;101528.72;1783560;80;21816;-74
2022/03/06 07:24:07;;;;;;;5.20;4.37;;;;;;;3.88;55.76;101528.12;1783748;80;20833;-74
2022/03/06 07:26:34;;;;;;;4.87;4.37;;;;;;;4.02;55.04;101530.46;1783494;80;21409;-74
2022/03/06 07:29:01;;;;;;;5.42;4.58;;;;;;;4.09;54.66;101531.20;1783796;80;20959;-75
2022/03/06 07:31:28;;;;;;;6.40;4.75;;;;;;;4.14;54.92;101525.50;1783552;80;20967;-74
2022/03/06 07:33:55;;;;;;;5.62;4.60;;;;;;;4.28;54.72;101529.13;1782231;80;21243;-74
2022/03/06 07:36:22;;;;;;;5.45;4.60;;;;;;;4.46;54.77;101531.81;1775199;80;20857;-74
2022/03/06 07:38:49;;;;;;;5.65;4.28;;;;;;;4.57;54.25;101532.45;1775639;80;20975;-75
2022/03/06 07:41:17;;;;;;;7.37;4.95;;;;;;;4.67;53.69;101522.30;1775321;80;20951;-75
2022/03/06 07:43:46;;;;;;;4.47;3.98;;;;;;;4.70;53.20;101533.06;1775307;80;20892;-74
2022/03/06 07:46:13;;;;;;;6.87;4.05;;;;;;;4.71;53.06;101534.75;1775622;80;21087;-75
2022/03/06 07:48:40;;;;;;;4.50;4.05;;;;;;;4.66;52.04;101530.95;1775287;80;20904;-74
2022/03/06 07:51:07;;;;;;;4.58;3.65;;;;;;;4.64;51.43;101528.83;1775534;80;20873;-74
2022/03/06 07:53:34;;;;;;;4.47;3.67;;;;;;;4.60;51.74;101528.93;1775278;80;20948;-74
2022/03/06 07:56:02;;;;;;;4.90;4.12;;;;;;;4.60;51.47;101537.56;1775276;80;21105;-74
2022/03/06 07:58:29;;;;;;;5.40;4.08;;;;;;;4.53;50.96;101536.84;1775233;80;21251;-73
2022/03/06 08:00:57;;;;;;;4.20;3.80;;;;;;;4.60;51.57;101531.52;1775372;80;20846;-73
2022/03/06 08:03:24;;;;;;;4.90;3.83;;;;;;;4.74;50.28;101536.86;1775438;80;20959;-74
2022/03/06 08:05:52;;;;;;;4.47;3.10;;;;;;;4.84;49.39;101545.30;1775250;80;20925;-74
2022/03/06 08:08:20;;;;;;;4.37;3.40;;;;;;;4.85;49.00;101539.69;1775250;80;20984;-74
2022/03/06 08:10:47;;;;;;;4.75;3.35;;;;;;;4.79;48.74;101535.46;1775259;80;21767;-74
2022/03/06 08:13:15;;;;;;;3.58;3.22;;;;;;;4.81;48.73;101540.18;1775139;80;20920;-74
2022/03/06 08:15:42;;;;;;;3.95;3.45;;;;;;;4.89;49.02;101539.58;1775219;80;20995;-75
2022/03/06 08:18:09;;;;;;;4.08;3.47;;;;;;;4.94;48.30;101537.73;1775190;80;21397;-75
2022/03/06 08:20:37;;;;;;;4.45;2.83;;;;;;;4.93;47.26;101536.00;1775369;80;21399;-73
2022/03/06 08:23:04;;;;;;;3.35;2.90;;;;;;;4.94;47.67;101541.63;1775288;80;22204;-75
2022/03/06 08:25:32;;;;;;;2.67;1.87;;;;;;;5.00;47.18;101534.13;1775246;80;20924;-74
2022/03/06 08:28:00;;;;;;;8.43;1.75;;;;;;;5.03;45.36;101535.37;1775291;80;20936;-74
2022/03/06 08:30:27;;;;;;;2.08;1.87;;;;;;;4.96;45.03;101532.51;1775165;80;20947;-73
2022/03/06 08:32:56;;;;;;;2.65;1.95;;;;;;;5.02;44.30;101538.00;1775372;80;21354;-75
2022/03/06 08:35:22;;;;;;;1.57;1.47;;;;;;;5.09;44.69;101533.06;1775376;80;21537;-75
2022/03/06 08:37:50;;;;;;;1.07;1.00;;;;;;;5.17;42.73;101533.30;1775339;80;20960;-74
2022/03/06 08:40:17;;;;;;;1.00;1.00;;;;;;;5.13;41.63;101530.36;1775495;80;21392;-75
2022/03/06 08:42:46;;;;;;;1.27;1.17;;;;;;;5.10;40.82;101534.34;1775158;80;20912;-75
2022/03/06 08:45:13;;;;;;;1.00;0.90;;;;;;;5.07;39.98;101533.55;1775346;80;20897;-76
2022/03/06 08:47:41;;;;;;;1.32;0.82;;;;;;;5.07;40.46;101530.95;1775240;80;21589;-75
2022/03/06 08:50:10;;;;;;;1.45;1.35;;;;;;;5.16;40.27;101524.27;1775108;80;20916;-74
2022/03/06 08:52:37;;;;;;;1.47;1.15;;;;;;;5.25;40.69;101528.40;1775260;80;20936;-75
2022/03/06 08:55:06;;;;;;;1.85;1.40;;;;;;;5.34;40.88;101531.63;1775123;80;21514;-74
2022/03/06 08:57:33;;;;;;;1.75;1.52;;;;;;;5.42;40.59;101527.98;1775482;80;21359;-74
2022/03/06 09:00:05;;;;;;;1.32;1.20;;;;;;;5.51;40.11;101526.00;1774996;80;21402;-74
2022/03/06 09:02:32;;;;;;;1.20;1.20;;;;;;;5.61;39.69;101527.50;1775236;80;21426;-74
2022/03/06 09:04:59;;;;;;;2.85;1.22;;;;;;;5.62;39.41;101521.84;1775529;80;20936;-74
2022/03/06 09:07:27;;;;;;;1.30;1.20;;;;;;;5.63;39.79;101527.47;1775155;80;20948;-75
2022/03/06 09:09:56;;;;;;;2.02;1.47;;;;;;;5.54;39.09;101519.44;1775276;80;21338;-75
2022/03/06 09:12:26;;;;;;;2.17;1.77;;;;;;;5.39;40.22;101518.52;1775107;80;21127;-74
2022/03/06 09:14:54;;;;;;;1.80;1.70;;;;;;;5.37;39.22;101513.79;1775108;80;21315;-74
2022/03/06 09:17:22;;;;;;;2.33;1.42;;;;;;;5.40;39.77;101518.91;1775157;80;20912;-74
2022/03/06 09:19:51;;;;;;;2.35;1.62;;;;;;;5.40;40.08;101519.78;1775194;80;21505;-75
2022/03/06 09:22:20;;;;;;;1.70;1.60;;;;;;;5.37;40.53;101522.89;1775139;80;21477;-77
2022/03/06 09:24:49;;;;;;;2.00;1.62;;;;;;;5.42;40.42;101521.48;1775142;80;20924;-75
2022/03/06 09:27:18;;;;;;;2.17;1.98;;;;;;;5.51;40.44;101518.66;1774805;80;20884;-74
2022/03/06 09:29:45;;;;;;;1.80;1.70;;;;;;;5.54;39.20;101520.75;1775145;80;20877;-76
2022/03/06 09:32:13;;;;;;;2.05;1.75;;;;;;;5.50;39.27;101523.01;1775238;80;20916;-73
2022/03/06 09:34:40;;;;;;;3.47;1.75;;;;;;;5.49;38.65;101517.83;1774831;80;20948;-73
2022/03/06 09:37:08;;;;;;;1.70;1.60;;;;;;;5.24;38.13;101521.02;1775266;80;21096;-73
2022/03/06 09:39:35;;;;;;;1.30;1.20;;;;;;;5.06;38.59;101522.30;1775124;80;20928;-73
2022/03/06 09:42:03;;;;;;;2.72;1.70;;;;;;;4.84;38.73;101520.61;1775159;80;20924;-74
2022/03/06 09:44:32;;;;;;;1.70;1.55;;;;;;;4.74;39.25;101517.38;1775405;80;20964;-75
2022/03/06 09:46:59;;;;;;;2.60;1.95;;;;;;;4.80;39.74;101518.12;1775145;80;20979;-75
2022/03/06 09:49:26;;;;;;;1.55;1.45;;;;;;;4.84;40.19;101521.91;1775369;80;21932;-75
2022/03/06 09:51:54;;;;;;;1.45;1.10;;;;;;;4.86;39.61;101516.69;1775136;80;20982;-75
2022/03/06 09:54:23;;;;;;;3.22;1.35;;;;;;;4.86;39.00;101518.84;1775268;80;21323;-74
2022/03/06 09:56:52;;;;;;;1.60;1.27;;;;;;;4.74;39.29;101520.42;1775031;80;20983;-75
2022/03/06 09:59:20;;;;;;;0.90;0.90;;;;;;;4.67;39.16;101514.91;1779074;80;21338;-75
2022/03/06 10:01:48;;;;;;;2.22;1.40;;;;;;;4.75;39.14;101519.06;1775352;80;21159;-76
2022/03/06 10:04:29;;;;;;;1.80;1.70;;;;;;;5.04;39.47;101516.73;1775182;80;20876;-75
2022/03/06 10:07:07;;;;;;;1.95;1.55;;;;;;;5.66;39.19;101516.13;1775372;80;20916;-77
2022/03/06 10:09:54;;;;;;;1.80;1.70;;;;;;;6.22;38.69;101515.98;1775244;80;20912;-76
2022/03/06 10:12:28;;;;;;;1.40;1.30;;;;;;;6.56;38.34;101511.13;1774719;80;20943;-75
2022/03/06 10:15:06;;;;;;;1.22;1.12;;;;;;;6.74;36.69;101514.09;1775178;80;21354;-77
2022/03/06 10:17:34;;;;;;;1.17;1.07;;;;;;;6.72;36.47;101512.83;1775267;80;20892;-75
2022/03/06 10:20:10;;;;;;;1.30;1.20;;;;;;;6.57;36.01;101515.42;1775147;80;21026;-73
2022/03/06 10:22:40;;;;;;;1.65;1.55;;;;;;;6.50;35.70;101519.56;1756977;80;20941;-74
2022/03/06 10:25:16;;;;;;;1.45;1.20;;;;;;;6.46;35.57;101515.33;1746969;80;20936;-75
2022/03/06 10:27:54;;;;;;;2.72;1.27;;;;;;;6.35;35.27;101510.42;1746833;81;20865;-74
2022/03/06 10:30:37;;;;;;;1.62;1.32;;;;;;;6.57;36.09;101510.20;1746833;80;21410;-74
2022/03/06 10:33:13;;;;;;;1.90;1.80;;;;;;;7.06;35.80;101507.88;1746836;80;20916;-76
2022/03/06 10:35:44;;;;;;;2.05;1.85;;;;;;;7.58;35.32;101502.31;1744494;80;20992;-75
2022/03/06 10:38:23;;;;;;;1.25;1.15;;;;;;;8.22;35.29;101491.82;1749493;82;20964;-75
2022/03/06 10:40:50;;;;;;;1.90;1.35;;;;;;;8.82;33.86;101492.23;1749764;81;21135;-76
2022/03/06 10:43:34;;;;;;;1.70;1.60;;;;;;;9.05;32.86;101486.12;1749036;82;20987;-75
2022/03/06 10:46:16;;;;;;;1.95;1.20;;;;;;;9.22;33.39;101494.13;1722352;82;21511;-75
2022/03/06 10:48:56;;;;;;;1.92;1.55;;;;;;;9.24;32.31;101496.23;1749469;81;20868;-75
2022/03/06 10:51:24;;;;;;;2.58;1.57;;;;;;;9.10;32.00;101485.48;1749621;80;20968;-74
2022/03/06 10:54:00;;;;;;;2.42;1.72;;;;;;;8.83;33.13;101487.42;1749489;81;20924;-75
2022/03/06 10:56:29;;;;;;;1.85;1.50;;;;;;;8.64;33.60;101488.10;1749352;80;20924;-74
2022/03/06 10:58:57;;;;;;;2.10;1.90;;;;;;;8.44;34.67;101478.39;1749645;82;20866;-75
2022/03/06 11:01:25;;;;;;;4.42;2.90;;;;;;;8.10;33.44;101484.83;1749771;82;21462;-76
2022/03/06 11:03:52;;;;;;;1.82;1.72;;;;;;;7.56;34.69;101486.27;1750059;82;20990;-75
2022/03/06 11:06:20;;;;;;;2.72;2.42;;;;;;;7.04;35.48;101482.30;1749639;82;20990;-76
2022/03/06 11:08:49;;;;;;;2.27;2.08;;;;;;;6.70;36.05;101486.41;1749369;80;21015;-75
2022/03/06 11:11:17;;;;;;;2.58;1.52;;;;;;;6.56;36.47;101479.84;1749707;82;21412;-74
2022/03/06 11:13:45;;;;;;;2.12;1.82;;;;;;;6.50;36.65;101482.62;1722619;82;21496;-75
2022/03/06 11:16:14;;;;;;;2.70;1.60;;;;;;;6.45;36.71;101485.83;1722817;80;20924;-74
2022/03/06 11:18:42;;;;;;;3.67;2.30;;;;;;;6.41;36.96;101486.80;1699238;82;21168;-74
2022/03/06 11:21:11;;;;;;;2.80;2.60;;;;;;;6.44;37.47;101485.41;1749716;82;20888;-75
2022/03/06 11:23:45;;;;;;;2.02;1.90;;;;;;;6.44;38.01;101496.67;1722284;82;20931;-74
2022/03/06 11:26:52;;;;;;;2.22;2.02;;;;;;;6.46;37.18;101491.88;1749665;80;20936;-73
2022/03/06 11:29:34;;;;;;;2.55;2.05;;;;;;;6.48;37.48;101493.54;1749806;80;20948;-73
2022/03/06 11:32:06;;;;;;;2.22;1.92;;;;;;;6.46;37.29;101498.39;1749472;80;20988;-74
2022/03/06 11:34:37;;;;;;;2.15;1.95;;;;;;;6.35;38.56;101491.73;1749490;82;21463;-73
2022/03/06 11:37:13;;;;;;;4.60;1.87;;;;;;;6.20;38.66;101498.24;1749035;80;20849;-75